createdAt,value
2023-04-25T00:00:25.174Z,2.21
2023-04-25T00:00:56.599Z,2.02
2023-04-25T00:01:28.072Z,2.11
2023-04-25T00:01:59.466Z,1.94
2023-04-25T00:02:31.015Z,2.11
2023-04-25T00:03:02.593Z,1.85
2023-04-25T00:03:34.294Z,2.45
2023-04-25T00:04:06.009Z,2.08
2023-04-25T00:04:37.843Z,1.91
2023-04-25T00:05:09.603Z,2.19
2023-04-25T00:05:41.102Z,2.28
2023-04-25T00:06:12.545Z,2.12
2023-04-25T00:06:43.942Z,2.28
2023-04-25T00:07:15.393Z,2.03
2023-04-25T00:07:46.799Z,1.95
2023-04-25T00:08:18.195Z,1.89
2023-04-25T00:08:49.604Z,2.46
2023-04-25T00:09:21.004Z,2.33
2023-04-25T00:09:52.401Z,2.72
2023-04-25T00:10:23.801Z,2.06
2023-04-25T00:10:55.194Z,2.02
2023-04-25T00:11:26.651Z,2.66
2023-04-25T00:11:58.215Z,1.79
2023-04-25T00:12:29.631Z,2.20
2023-04-25T00:13:01.050Z,2.33
2023-04-25T00:13:32.443Z,2.19
2023-04-25T00:14:03.859Z,2.29
2023-04-25T00:14:35.272Z,2.14
2023-04-25T00:15:06.676Z,1.83
2023-04-25T00:15:38.085Z,2.10
2023-04-25T00:16:09.610Z,1.61
2023-04-25T00:16:41.127Z,2.06
2023-04-25T00:17:12.542Z,2.43
2023-04-25T00:17:43.968Z,2.04
2023-04-25T00:18:15.389Z,2.12
2023-04-25T00:18:46.929Z,2.24
2023-04-25T00:19:18.340Z,2.35
2023-04-25T00:19:49.761Z,1.86
2023-04-25T00:20:21.179Z,2.52
2023-04-25T00:20:52.587Z,2.09
2023-04-25T00:21:23.998Z,2.23
2023-04-25T00:21:55.429Z,2.20
2023-04-25T00:22:26.853Z,2.34
2023-04-25T00:22:58.259Z,2.20
2023-04-25T00:23:29.654Z,1.88
2023-04-25T00:24:01.040Z,2.37
2023-04-25T00:24:32.469Z,2.30
2023-04-25T00:25:03.902Z,1.71
2023-04-25T00:25:35.291Z,2.57
2023-04-25T00:26:06.691Z,2.13
2023-04-25T00:26:38.113Z,1.94
2023-04-25T00:27:09.502Z,1.65
2023-04-25T00:27:40.945Z,1.71
2023-04-25T00:28:12.618Z,1.71
2023-04-25T00:28:44.083Z,1.92
2023-04-25T00:29:15.484Z,1.82
2023-04-25T00:29:46.878Z,1.87
2023-04-25T00:30:18.332Z,1.82
2023-04-25T00:30:49.750Z,1.84
2023-04-25T00:31:21.198Z,2.06
2023-04-25T00:31:52.659Z,2.04
2023-04-25T00:32:24.217Z,1.95
2023-04-25T00:32:55.713Z,2.11
2023-04-25T00:33:27.126Z,1.96
2023-04-25T00:33:58.563Z,2.02
2023-04-25T00:34:30.026Z,1.92
2023-04-25T00:35:01.448Z,1.39
2023-04-25T00:35:32.869Z,1.80
2023-04-25T00:36:04.258Z,2.19
2023-04-25T00:36:35.669Z,2.05
2023-04-25T00:37:07.126Z,2.27
2023-04-25T00:37:38.569Z,2.35
2023-04-25T00:38:09.968Z,1.42
2023-04-25T00:38:41.361Z,1.42
2023-04-25T00:39:12.762Z,1.72
2023-04-25T00:39:44.173Z,1.80
2023-04-25T00:40:15.603Z,1.81
2023-04-25T00:40:47.022Z,1.77
2023-04-25T00:41:18.431Z,1.75
2023-04-25T00:41:49.851Z,1.67
2023-04-25T00:42:21.253Z,1.88
2023-04-25T00:42:52.664Z,1.63
2023-04-25T00:43:24.079Z,1.50
2023-04-25T00:43:55.491Z,1.85
2023-04-25T00:44:26.884Z,2.13
2023-04-25T00:44:58.286Z,1.47
2023-04-25T00:45:29.724Z,1.66
2023-04-25T00:46:01.152Z,2.14
2023-04-25T00:46:32.627Z,1.87
2023-04-25T00:47:04.117Z,1.64
2023-04-25T00:47:35.639Z,2.08
2023-04-25T00:48:07.177Z,1.98
2023-04-25T00:48:38.596Z,1.92
2023-04-25T00:49:10.011Z,1.57
2023-04-25T00:49:41.493Z,1.77
2023-04-25T00:50:12.924Z,2.13
2023-04-25T00:50:44.356Z,2.07
2023-04-25T00:51:15.777Z,1.75
2023-04-25T00:51:47.171Z,1.16
2023-04-25T00:52:18.568Z,1.52
2023-04-25T00:52:50.000Z,1.84
2023-04-25T00:53:21.485Z,2.46
2023-04-25T00:53:53.086Z,1.49
2023-04-25T00:54:24.834Z,1.75
2023-04-25T00:54:56.256Z,1.77
2023-04-25T00:55:27.658Z,1.58
2023-04-25T00:55:59.073Z,1.74
2023-04-25T00:56:30.485Z,1.79
2023-04-25T00:57:01.972Z,1.86
2023-04-25T00:57:33.441Z,1.89
2023-04-25T00:58:04.801Z,1.81
2023-04-25T00:58:36.239Z,1.81
2023-04-25T00:59:07.664Z,1.40
2023-04-25T00:59:39.078Z,1.58
2023-04-25T01:00:10.492Z,2.06
2023-04-25T01:00:42.012Z,1.61
2023-04-25T01:01:13.492Z,1.84
2023-04-25T01:01:45.368Z,1.64
2023-04-25T01:02:16.923Z,1.28
2023-04-25T01:02:48.444Z,1.97
2023-04-25T01:03:20.062Z,1.65
2023-04-25T01:03:51.924Z,1.76
2023-04-25T01:04:23.882Z,1.60
2023-04-25T01:04:55.362Z,1.56
2023-04-25T01:05:26.777Z,2.13
2023-04-25T01:05:58.186Z,2.11
2023-04-25T01:06:29.588Z,1.85
2023-04-25T01:07:00.981Z,1.68
2023-04-25T01:07:32.393Z,1.64
2023-04-25T01:08:03.837Z,1.77
2023-04-25T01:08:35.256Z,1.51
2023-04-25T01:09:06.693Z,0.83
2023-04-25T01:09:38.105Z,1.38
2023-04-25T01:10:09.516Z,1.27
2023-04-25T01:10:40.922Z,1.57
2023-04-25T01:11:12.326Z,1.43
2023-04-25T01:11:43.806Z,1.53
2023-04-25T01:12:15.226Z,1.56
2023-04-25T01:12:46.636Z,1.80
2023-04-25T01:13:18.043Z,1.78
2023-04-25T01:13:49.588Z,1.68
2023-04-25T01:14:21.209Z,1.41
2023-04-25T01:14:52.627Z,1.36
2023-04-25T01:15:24.112Z,1.67
2023-04-25T01:15:55.545Z,1.83
2023-04-25T01:16:26.992Z,2.13
2023-04-25T01:16:58.571Z,1.77
2023-04-25T01:17:30.125Z,1.69
2023-04-25T01:18:01.685Z,1.81
2023-04-25T01:18:33.117Z,1.38
2023-04-25T01:19:04.520Z,2.02
2023-04-25T01:19:35.929Z,1.43
2023-04-25T01:20:07.339Z,1.55
2023-04-25T01:20:38.743Z,1.39
2023-04-25T01:21:10.157Z,1.84
2023-04-25T01:21:41.579Z,1.48
2023-04-25T01:22:12.995Z,1.31
2023-04-25T01:22:44.407Z,1.65
2023-04-25T01:23:15.836Z,1.76
2023-04-25T01:23:47.233Z,1.52
2023-04-25T01:24:18.638Z,1.44
2023-04-25T01:24:50.045Z,1.26
2023-04-25T01:25:21.437Z,1.38
2023-04-25T01:25:52.865Z,1.40
2023-04-25T01:26:24.294Z,1.26
2023-04-25T01:26:55.715Z,1.23
2023-04-25T01:27:27.133Z,1.36
2023-04-25T01:27:58.521Z,1.43
2023-04-25T01:28:29.930Z,1.38
2023-04-25T01:29:01.378Z,1.34
2023-04-25T01:29:32.787Z,0.94
2023-04-25T01:30:04.200Z,1.05
2023-04-25T01:30:35.637Z,1.47
2023-04-25T01:31:07.063Z,1.47
2023-04-25T01:31:38.568Z,1.53
2023-04-25T01:32:10.104Z,1.19
2023-04-25T01:32:41.599Z,1.64
2023-04-25T01:33:13.020Z,1.37
2023-04-25T01:33:44.429Z,1.51
2023-04-25T01:34:15.852Z,1.41
2023-04-25T01:34:47.263Z,1.46
2023-04-25T01:35:18.676Z,1.26
2023-04-25T01:35:50.085Z,1.40
2023-04-25T01:36:21.503Z,1.49
2023-04-25T01:36:52.899Z,1.22
2023-04-25T01:37:24.303Z,1.06
2023-04-25T01:37:55.713Z,1.40
2023-04-25T01:38:27.125Z,1.24
2023-04-25T01:38:58.545Z,1.10
2023-04-25T01:39:30.022Z,1.51
2023-04-25T01:40:01.457Z,1.29
2023-04-25T01:40:32.875Z,1.69
2023-04-25T01:41:04.311Z,1.76
2023-04-25T01:41:35.735Z,1.86
2023-04-25T01:42:07.145Z,1.18
2023-04-25T01:42:38.547Z,0.97
2023-04-25T01:43:09.939Z,1.25
2023-04-25T01:43:41.330Z,1.58
2023-04-25T01:44:12.763Z,1.25
2023-04-25T01:44:44.217Z,1.23
2023-04-25T01:45:15.634Z,1.53
2023-04-25T01:45:47.067Z,1.52
2023-04-25T01:46:18.521Z,1.50
2023-04-25T01:46:49.977Z,1.45
2023-04-25T01:47:21.423Z,1.38
2023-04-25T01:47:52.914Z,1.49
2023-04-25T01:48:24.339Z,1.44
2023-04-25T01:48:55.750Z,1.68
2023-04-25T01:49:27.157Z,1.43
2023-04-25T01:49:58.601Z,1.47
2023-04-25T01:50:29.992Z,1.35
2023-04-25T01:51:01.433Z,1.52
2023-04-25T01:51:32.839Z,1.34
2023-04-25T01:52:04.281Z,1.28
2023-04-25T01:52:35.706Z,1.23
2023-04-25T01:53:07.122Z,1.88
2023-04-25T01:53:38.555Z,1.17
2023-04-25T01:54:09.974Z,1.53
2023-04-25T01:54:41.422Z,1.46
2023-04-25T01:55:12.851Z,1.51
2023-04-25T01:55:44.268Z,1.42
2023-04-25T01:56:15.660Z,1.75
2023-04-25T01:56:47.063Z,1.22
2023-04-25T01:57:18.455Z,1.17
2023-04-25T01:57:49.850Z,0.93
2023-04-25T01:58:21.284Z,1.51
2023-04-25T01:58:52.677Z,1.25
2023-04-25T01:59:24.074Z,1.36
2023-04-25T01:59:55.495Z,1.46
2023-04-25T02:00:26.917Z,1.37
2023-04-25T02:00:58.354Z,1.52
2023-04-25T02:01:29.794Z,1.63
2023-04-25T02:02:01.260Z,1.35
2023-04-25T02:02:32.781Z,1.40
2023-04-25T02:03:04.415Z,1.14
2023-04-25T02:03:36.075Z,1.64
2023-04-25T02:04:07.724Z,1.29
2023-04-25T02:04:39.514Z,1.41
2023-04-25T02:05:11.043Z,0.94
2023-04-25T02:05:42.489Z,1.46
2023-04-25T02:06:13.918Z,1.37
2023-04-25T02:06:45.322Z,1.12
2023-04-25T02:07:16.721Z,1.23
2023-04-25T02:07:48.110Z,1.52
2023-04-25T02:08:19.529Z,1.13
2023-04-25T02:08:50.941Z,1.32
2023-04-25T02:09:22.903Z,1.36
2023-04-25T02:09:54.335Z,1.46
2023-04-25T02:10:25.772Z,1.32
2023-04-25T02:10:57.198Z,1.00
2023-04-25T02:11:28.655Z,1.84
2023-04-25T02:12:00.065Z,1.15
2023-04-25T02:12:31.480Z,1.21
2023-04-25T02:13:02.874Z,1.62
2023-04-25T02:13:34.293Z,1.32
2023-04-25T02:14:05.696Z,1.21
2023-04-25T02:14:37.102Z,1.04
2023-04-25T02:15:08.541Z,1.14
2023-04-25T02:15:40.018Z,1.36
2023-04-25T02:16:11.516Z,1.08
2023-04-25T02:16:43.096Z,0.94
2023-04-25T02:17:14.610Z,1.43
2023-04-25T02:17:46.123Z,1.09
2023-04-25T02:18:17.678Z,1.34
2023-04-25T02:18:49.144Z,1.34
2023-04-25T02:19:20.549Z,1.28
2023-04-25T02:19:51.960Z,1.48
2023-04-25T02:20:23.390Z,1.44
2023-04-25T02:20:54.807Z,1.16
2023-04-25T02:21:26.223Z,1.24
2023-04-25T02:21:57.644Z,1.12
2023-04-25T02:22:29.049Z,0.95
2023-04-25T02:23:00.444Z,1.21
2023-04-25T02:23:32.074Z,1.12
2023-04-25T02:24:03.534Z,1.59
2023-04-25T02:24:34.926Z,1.28
2023-04-25T02:25:06.308Z,1.32
2023-04-25T02:25:37.745Z,1.69
2023-04-25T02:26:09.192Z,1.29
2023-04-25T02:26:40.580Z,1.26
2023-04-25T02:27:12.009Z,1.50
2023-04-25T02:27:43.435Z,1.33
2023-04-25T02:28:14.828Z,1.17
2023-04-25T02:28:46.221Z,1.52
2023-04-25T02:29:17.610Z,1.40
2023-04-25T02:29:49.019Z,1.39
2023-04-25T02:30:20.450Z,1.37
2023-04-25T02:30:51.873Z,1.30
2023-04-25T02:31:23.344Z,1.34
2023-04-25T02:31:54.872Z,1.04
2023-04-25T02:32:26.436Z,1.28
2023-04-25T02:32:57.987Z,0.97
2023-04-25T02:33:29.406Z,1.07
2023-04-25T02:34:00.809Z,0.99
2023-04-25T02:34:32.304Z,1.16
2023-04-25T02:35:03.715Z,1.07
2023-04-25T02:35:35.129Z,1.19
2023-04-25T02:36:06.587Z,1.08
2023-04-25T02:36:37.998Z,1.40
2023-04-25T02:37:09.397Z,1.31
2023-04-25T02:37:40.823Z,1.11
2023-04-25T02:38:12.227Z,1.28
2023-04-25T02:38:43.621Z,1.47
2023-04-25T02:39:15.008Z,1.00
2023-04-25T02:39:46.428Z,1.18
2023-04-25T02:40:17.911Z,0.99
2023-04-25T02:40:49.312Z,1.17
2023-04-25T02:41:20.708Z,1.07
2023-04-25T02:41:52.110Z,1.10
2023-04-25T02:42:23.533Z,1.16
2023-04-25T02:42:54.961Z,1.18
2023-04-25T02:43:26.380Z,1.21
2023-04-25T02:43:57.785Z,1.11
2023-04-25T02:44:29.196Z,1.38
2023-04-25T02:45:00.634Z,1.64
2023-04-25T02:45:32.111Z,1.33
2023-04-25T02:46:03.577Z,1.08
2023-04-25T02:46:39.405Z,1.52
2023-04-25T02:47:11.325Z,1.54
2023-04-25T02:47:42.815Z,1.17
2023-04-25T02:48:14.270Z,1.09
2023-04-25T02:48:45.690Z,0.83
2023-04-25T02:49:17.098Z,1.07
2023-04-25T02:49:48.493Z,1.31
2023-04-25T02:50:19.943Z,1.02
2023-04-25T02:50:51.357Z,1.03
2023-04-25T02:51:22.786Z,1.37
2023-04-25T02:51:54.202Z,1.75
2023-04-25T02:52:25.613Z,1.11
2023-04-25T02:52:57.063Z,1.27
2023-04-25T02:53:28.488Z,1.29
2023-04-25T02:53:59.906Z,0.89
2023-04-25T02:54:31.329Z,0.93
2023-04-25T02:55:02.728Z,1.04
2023-04-25T02:55:34.146Z,1.05
2023-04-25T02:56:05.607Z,1.35
2023-04-25T02:56:36.997Z,1.38
2023-04-25T02:57:08.419Z,1.25
2023-04-25T02:57:39.834Z,1.07
2023-04-25T02:58:11.264Z,1.06
2023-04-25T02:58:42.662Z,1.27
2023-04-25T02:59:14.080Z,0.94
2023-04-25T02:59:45.489Z,1.15
2023-04-25T03:00:16.907Z,0.95
2023-04-25T03:00:48.367Z,1.03
2023-04-25T03:01:19.951Z,1.31
2023-04-25T03:01:51.447Z,1.35
2023-04-25T03:02:22.949Z,0.70
2023-04-25T03:02:54.508Z,0.75
2023-04-25T03:03:26.142Z,0.96
2023-04-25T03:03:57.591Z,1.22
2023-04-25T03:04:29.067Z,0.85
2023-04-25T03:05:00.533Z,1.20
2023-04-25T03:05:31.957Z,1.19
2023-04-25T03:06:03.374Z,1.00
2023-04-25T03:06:34.784Z,1.50
2023-04-25T03:07:06.196Z,0.96
2023-04-25T03:07:37.616Z,0.82
2023-04-25T03:08:09.058Z,0.90
2023-04-25T03:08:40.507Z,1.26
2023-04-25T03:09:11.910Z,1.14
2023-04-25T03:09:43.302Z,1.01
2023-04-25T03:10:14.728Z,1.08
2023-04-25T03:10:46.160Z,1.35
2023-04-25T03:11:17.590Z,1.02
2023-04-25T03:11:48.993Z,1.01
2023-04-25T03:12:20.399Z,0.74
2023-04-25T03:12:51.817Z,0.82
2023-04-25T03:13:23.249Z,1.18
2023-04-25T03:13:54.702Z,1.09
2023-04-25T03:14:26.110Z,1.13
2023-04-25T03:14:57.513Z,1.28
2023-04-25T03:15:28.918Z,1.39
2023-04-25T03:16:00.339Z,0.83
2023-04-25T03:16:31.840Z,1.15
2023-04-25T03:17:03.390Z,0.95
2023-04-25T03:17:34.864Z,1.20
2023-04-25T03:18:06.335Z,0.92
2023-04-25T03:18:37.772Z,1.27
2023-04-25T03:19:09.229Z,1.52
2023-04-25T03:19:40.629Z,1.04
2023-04-25T03:20:12.022Z,1.33
2023-04-25T03:20:43.446Z,1.06
2023-04-25T03:21:14.843Z,1.00
2023-04-25T03:21:46.253Z,1.25
2023-04-25T03:22:17.676Z,1.20
2023-04-25T03:22:49.087Z,0.94
2023-04-25T03:23:20.496Z,0.85
2023-04-25T03:23:52.089Z,0.77
2023-04-25T03:24:23.761Z,1.00
2023-04-25T03:24:55.166Z,1.20
2023-04-25T03:25:26.585Z,1.15
2023-04-25T03:25:57.996Z,0.96
2023-04-25T03:26:29.398Z,1.05
2023-04-25T03:27:00.798Z,1.34
2023-04-25T03:27:32.199Z,1.19
2023-04-25T03:28:03.601Z,1.00
2023-04-25T03:28:35.006Z,0.97
2023-04-25T03:29:06.416Z,1.01
2023-04-25T03:29:37.848Z,1.13
2023-04-25T03:30:09.271Z,1.09
2023-04-25T03:30:40.693Z,1.16
2023-04-25T03:31:12.116Z,0.92
2023-04-25T03:31:43.606Z,0.90
2023-04-25T03:32:15.090Z,0.82
2023-04-25T03:32:46.630Z,0.91
2023-04-25T03:33:18.080Z,1.12
2023-04-25T03:33:49.661Z,0.99
2023-04-25T03:34:21.188Z,0.99
2023-04-25T03:34:52.577Z,0.70
2023-04-25T03:35:25.015Z,1.24
2023-04-25T03:35:57.307Z,0.99
2023-04-25T03:36:28.736Z,0.84
2023-04-25T03:37:00.129Z,1.20
2023-04-25T03:37:31.518Z,0.95
2023-04-25T03:38:02.914Z,1.12
2023-04-25T03:38:34.339Z,1.09
2023-04-25T03:39:05.786Z,0.64
2023-04-25T03:39:37.201Z,1.14
2023-04-25T03:40:08.585Z,1.24
2023-04-25T03:40:39.986Z,1.12
2023-04-25T03:41:11.398Z,1.16
2023-04-25T03:41:42.838Z,0.87
2023-04-25T03:42:14.235Z,1.08
2023-04-25T03:42:45.630Z,0.99
2023-04-25T03:43:17.044Z,0.86
2023-04-25T03:43:49.222Z,0.91
2023-04-25T03:44:20.796Z,0.97
2023-04-25T03:44:52.210Z,0.88
2023-04-25T03:45:23.609Z,0.74
2023-04-25T03:45:55.057Z,1.08
2023-04-25T03:46:26.562Z,1.05
2023-04-25T03:46:58.153Z,0.66
2023-04-25T03:47:29.574Z,1.30
2023-04-25T03:48:01.057Z,0.87
2023-04-25T03:48:32.544Z,0.89
2023-04-25T03:49:03.986Z,1.03
2023-04-25T03:49:35.404Z,0.92
2023-04-25T03:50:06.806Z,1.11
2023-04-25T03:50:38.214Z,1.00
2023-04-25T03:51:09.605Z,0.82
2023-04-25T03:51:41.018Z,1.32
2023-04-25T03:52:12.429Z,0.72
2023-04-25T03:52:43.871Z,1.11
2023-04-25T03:53:15.278Z,1.12
2023-04-25T03:53:46.680Z,1.81
2023-04-25T03:54:18.114Z,0.96
2023-04-25T03:54:49.503Z,1.26
2023-04-25T03:55:20.917Z,0.95
2023-04-25T03:55:52.310Z,1.23
2023-04-25T03:56:23.735Z,0.89
2023-04-25T03:56:55.133Z,0.74
2023-04-25T03:57:26.550Z,0.70
2023-04-25T03:57:57.942Z,0.84
2023-04-25T03:58:29.350Z,0.88
2023-04-25T03:59:00.778Z,1.09
2023-04-25T03:59:32.222Z,0.98
2023-04-25T04:00:03.630Z,0.75
2023-04-25T04:00:35.034Z,1.09
2023-04-25T04:01:06.452Z,1.01
2023-04-25T04:01:37.854Z,1.20
2023-04-25T04:02:09.360Z,1.21
2023-04-25T04:02:43.161Z,0.80
2023-04-25T04:03:16.286Z,1.12
2023-04-25T04:03:48.196Z,1.18
2023-04-25T04:04:19.914Z,1.13
2023-04-25T04:04:51.613Z,0.77
2023-04-25T04:05:23.479Z,0.70
2023-04-25T04:05:55.033Z,1.03
2023-04-25T04:06:26.492Z,0.96
2023-04-25T04:06:57.905Z,0.73
2023-04-25T04:07:29.318Z,0.94
2023-04-25T04:08:00.746Z,0.98
2023-04-25T04:08:32.142Z,0.87
2023-04-25T04:09:03.619Z,1.07
2023-04-25T04:09:35.050Z,0.91
2023-04-25T04:10:06.466Z,1.05
2023-04-25T04:10:37.885Z,1.10
2023-04-25T04:11:09.283Z,0.98
2023-04-25T04:11:40.696Z,0.98
2023-04-25T04:12:12.105Z,0.96
2023-04-25T04:12:43.515Z,0.82
2023-04-25T04:13:14.961Z,1.02
2023-04-25T04:13:46.373Z,1.18
2023-04-25T04:14:17.873Z,0.94
2023-04-25T04:14:49.280Z,1.07
2023-04-25T04:15:20.709Z,0.89
2023-04-25T04:15:52.114Z,0.57
2023-04-25T04:16:23.656Z,0.81
2023-04-25T04:16:55.145Z,0.93
2023-04-25T04:17:26.567Z,1.29
2023-04-25T04:17:58.039Z,0.97
2023-04-25T04:18:29.509Z,0.96
2023-04-25T04:19:00.930Z,1.03
2023-04-25T04:19:32.400Z,1.03
2023-04-25T04:20:03.816Z,0.93
2023-04-25T04:20:35.206Z,0.88
2023-04-25T04:21:06.633Z,0.84
2023-04-25T04:21:38.038Z,0.94
2023-04-25T04:22:09.459Z,0.72
2023-04-25T04:22:40.881Z,0.92
2023-04-25T04:23:12.287Z,0.98
2023-04-25T04:23:43.717Z,0.80
2023-04-25T04:24:15.137Z,0.60
2023-04-25T04:24:46.597Z,0.60
2023-04-25T04:25:18.001Z,0.66
2023-04-25T04:25:49.393Z,1.06
2023-04-25T04:26:20.822Z,0.79
2023-04-25T04:26:52.231Z,0.82
2023-04-25T04:27:23.629Z,0.87
2023-04-25T04:27:55.048Z,0.79
2023-04-25T04:28:26.466Z,0.75
2023-04-25T04:28:57.893Z,1.08
2023-04-25T04:29:29.285Z,0.96
2023-04-25T04:30:00.683Z,1.03
2023-04-25T04:30:32.127Z,1.04
2023-04-25T04:31:03.558Z,0.78
2023-04-25T04:31:35.124Z,1.36
2023-04-25T04:32:06.573Z,0.83
2023-04-25T04:32:37.993Z,0.78
2023-04-25T04:33:09.439Z,1.30
2023-04-25T04:33:40.855Z,0.72
2023-04-25T04:34:12.298Z,1.10
2023-04-25T04:34:43.715Z,1.00
2023-04-25T04:35:15.115Z,0.77
2023-04-25T04:35:46.529Z,0.86
2023-04-25T04:36:17.936Z,0.83
2023-04-25T04:36:49.352Z,0.86
2023-04-25T04:37:20.767Z,0.71
2023-04-25T04:37:52.165Z,0.96
2023-04-25T04:38:23.557Z,0.87
2023-04-25T04:38:54.942Z,0.91
2023-04-25T04:39:26.405Z,0.73
2023-04-25T04:39:57.813Z,0.98
2023-04-25T04:40:29.239Z,0.83
2023-04-25T04:41:00.657Z,0.99
2023-04-25T04:41:32.106Z,1.27
2023-04-25T04:42:03.509Z,1.08
2023-04-25T04:42:34.907Z,0.67
2023-04-25T04:43:06.317Z,0.66
2023-04-25T04:43:37.748Z,0.88
2023-04-25T04:44:09.154Z,0.99
2023-04-25T04:44:40.595Z,0.87
2023-04-25T04:45:12.430Z,0.62
2023-04-25T04:45:43.943Z,1.02
2023-04-25T04:46:15.365Z,0.60
2023-04-25T04:46:46.838Z,0.84
2023-04-25T04:47:18.246Z,0.97
2023-04-25T04:47:49.761Z,0.66
2023-04-25T04:48:21.293Z,0.71
2023-04-25T04:48:52.756Z,0.67
2023-04-25T04:49:26.114Z,1.00
2023-04-25T04:49:58.031Z,0.66
2023-04-25T04:50:29.892Z,1.12
2023-04-25T04:51:01.824Z,0.53
2023-04-25T04:51:33.300Z,0.71
2023-04-25T04:52:04.972Z,0.64
2023-04-25T04:52:36.469Z,0.94
2023-04-25T04:53:07.935Z,0.88
2023-04-25T04:53:39.342Z,0.91
2023-04-25T04:54:10.751Z,0.64
2023-04-25T04:54:42.157Z,0.72
2023-04-25T04:55:13.578Z,0.93
2023-04-25T04:55:44.978Z,0.68
2023-04-25T04:56:16.394Z,0.91
2023-04-25T04:56:47.812Z,0.81
2023-04-25T04:57:19.232Z,0.84
2023-04-25T04:57:50.646Z,0.94
2023-04-25T04:58:22.040Z,1.06
2023-04-25T04:58:53.494Z,0.65
2023-04-25T04:59:24.907Z,0.68
2023-04-25T04:59:56.336Z,1.29
2023-04-25T05:00:29.638Z,1.11
2023-04-25T05:01:01.287Z,0.74
2023-04-25T05:01:32.766Z,0.57
2023-04-25T05:02:04.168Z,0.59
2023-04-25T05:02:35.677Z,0.94
2023-04-25T05:03:07.280Z,1.31
2023-04-25T05:03:39.030Z,0.78
2023-04-25T05:04:10.762Z,0.97
2023-04-25T05:04:42.345Z,0.81
2023-04-25T05:05:13.888Z,0.90
2023-04-25T05:05:45.302Z,0.91
2023-04-25T05:06:16.698Z,1.17
2023-04-25T05:06:49.106Z,0.98
2023-04-25T05:07:20.727Z,0.65
2023-04-25T05:07:52.129Z,0.88
2023-04-25T05:08:23.597Z,0.89
2023-04-25T05:08:55.027Z,0.65
2023-04-25T05:09:26.433Z,0.77
2023-04-25T05:09:57.842Z,0.61
2023-04-25T05:10:29.264Z,0.67
2023-04-25T05:11:00.661Z,0.82
2023-04-25T05:11:32.063Z,1.16
2023-04-25T05:12:03.486Z,0.60
2023-04-25T05:12:36.969Z,0.98
2023-04-25T05:13:08.765Z,0.75
2023-04-25T05:13:40.192Z,0.55
2023-04-25T05:14:11.633Z,0.62
2023-04-25T05:14:43.035Z,1.04
2023-04-25T05:15:14.441Z,0.63
2023-04-25T05:15:45.837Z,0.84
2023-04-25T05:16:17.940Z,0.88
2023-04-25T05:16:49.526Z,0.70
2023-04-25T05:17:20.985Z,0.93
2023-04-25T05:17:52.506Z,0.67
2023-04-25T05:18:23.966Z,0.67
2023-04-25T05:18:55.363Z,0.90
2023-04-25T05:19:26.797Z,0.58
2023-04-25T05:19:58.228Z,0.77
2023-04-25T05:20:29.641Z,0.73
2023-04-25T05:21:01.052Z,0.59
2023-04-25T05:21:32.513Z,0.77
2023-04-25T05:22:03.922Z,0.81
2023-04-25T05:22:35.334Z,0.73
2023-04-25T05:23:06.839Z,0.58
2023-04-25T05:23:38.400Z,0.97
2023-04-25T05:24:09.833Z,0.97
2023-04-25T05:24:41.241Z,1.09
2023-04-25T05:25:12.844Z,0.67
2023-04-25T05:25:44.912Z,0.92
2023-04-25T05:26:18.057Z,0.61
2023-04-25T05:26:49.654Z,0.64
2023-04-25T05:27:26.647Z,1.06
2023-04-25T05:27:58.300Z,0.87
2023-04-25T05:28:30.243Z,0.78
2023-04-25T05:29:02.405Z,0.72
2023-04-25T05:29:33.942Z,0.65
2023-04-25T05:30:08.217Z,0.69
2023-04-25T05:30:43.227Z,0.69
2023-04-25T05:31:16.487Z,0.55
2023-04-25T05:31:48.435Z,1.23
2023-04-25T05:32:22.157Z,1.07
2023-04-25T05:32:56.350Z,0.79
2023-04-25T05:33:29.449Z,0.74
2023-04-25T05:34:00.912Z,0.98
2023-04-25T05:34:32.491Z,0.87
2023-04-25T05:35:08.358Z,0.81
2023-04-25T05:35:40.568Z,0.75
2023-04-25T05:36:13.377Z,1.01
2023-04-25T05:36:45.548Z,0.78
2023-04-25T05:37:18.449Z,0.83
2023-04-25T05:37:53.247Z,0.63
2023-04-25T05:38:24.792Z,0.74
2023-04-25T05:38:56.260Z,0.81
2023-04-25T05:39:28.138Z,0.70
2023-04-25T05:39:59.664Z,0.75
2023-04-25T05:40:31.086Z,0.76
2023-04-25T05:41:02.571Z,0.52
2023-04-25T05:41:33.997Z,0.45
2023-04-25T05:42:05.415Z,0.81
2023-04-25T05:42:36.797Z,0.93
2023-04-25T05:43:08.223Z,0.75
2023-04-25T05:43:39.630Z,0.76
2023-04-25T05:44:11.046Z,0.78
2023-04-25T05:44:42.485Z,0.88
2023-04-25T05:45:13.889Z,0.85
2023-04-25T05:45:45.319Z,0.90
2023-04-25T05:46:16.771Z,0.92
2023-04-25T05:46:48.244Z,1.01
2023-04-25T05:47:19.686Z,0.60
2023-04-25T05:47:51.255Z,0.92
2023-04-25T05:48:22.767Z,0.79
2023-04-25T05:48:54.177Z,0.82
2023-04-25T05:49:25.581Z,0.77
2023-04-25T05:49:57.027Z,0.77
2023-04-25T05:50:28.438Z,0.75
2023-04-25T05:50:59.847Z,0.82
2023-04-25T05:51:31.266Z,0.93
2023-04-25T05:52:02.669Z,0.75
2023-04-25T05:52:34.241Z,0.73
2023-04-25T05:53:05.630Z,0.74
2023-04-25T05:53:37.029Z,0.80
2023-04-25T05:54:08.453Z,0.51
2023-04-25T05:54:39.857Z,0.39
2023-04-25T05:55:11.274Z,0.84
2023-04-25T05:55:42.671Z,0.78
2023-04-25T05:56:14.073Z,0.89
2023-04-25T05:56:45.487Z,0.81
2023-04-25T05:57:16.874Z,1.30
2023-04-25T05:57:49.543Z,0.86
2023-04-25T05:58:22.177Z,0.89
2023-04-25T05:58:53.593Z,0.96
2023-04-25T05:59:25.025Z,0.84
2023-04-25T05:59:56.457Z,0.76
2023-04-25T06:00:27.854Z,0.53
2023-04-25T06:00:59.353Z,0.45
2023-04-25T06:01:30.766Z,0.82
2023-04-25T06:02:02.200Z,0.88
2023-04-25T06:02:33.756Z,0.76
2023-04-25T06:03:05.446Z,0.78
2023-04-25T06:03:37.198Z,0.93
2023-04-25T06:04:08.836Z,1.03
2023-04-25T06:04:40.541Z,0.56
2023-04-25T06:05:12.196Z,0.72
2023-04-25T06:05:43.818Z,0.68
2023-04-25T06:06:15.262Z,0.82
2023-04-25T06:06:46.746Z,0.72
2023-04-25T06:07:18.171Z,0.50
2023-04-25T06:07:49.571Z,0.89
2023-04-25T06:08:20.975Z,0.95
2023-04-25T06:08:52.367Z,0.53
2023-04-25T06:09:23.782Z,0.71
2023-04-25T06:09:55.175Z,0.81
2023-04-25T06:10:26.600Z,0.76
2023-04-25T06:10:58.050Z,0.99
2023-04-25T06:11:32.332Z,0.57
2023-04-25T06:12:03.907Z,0.79
2023-04-25T06:12:35.397Z,0.97
2023-04-25T06:13:06.857Z,0.70
2023-04-25T06:13:38.287Z,0.63
2023-04-25T06:14:10.121Z,0.69
2023-04-25T06:14:41.572Z,0.73
2023-04-25T06:15:27.348Z,0.86
2023-04-25T06:16:00.246Z,1.01
2023-04-25T06:16:31.704Z,1.26
2023-04-25T06:17:03.193Z,0.89
2023-04-25T06:17:34.698Z,0.97
2023-04-25T06:18:06.413Z,0.89
2023-04-25T06:18:38.089Z,0.66
2023-04-25T06:19:09.520Z,0.69
2023-04-25T06:19:40.954Z,0.60
2023-04-25T06:20:12.358Z,1.22
2023-04-25T06:20:43.775Z,0.84
2023-04-25T06:21:15.490Z,1.05
2023-04-25T06:21:46.892Z,0.79
2023-04-25T06:22:18.308Z,0.82
2023-04-25T06:22:49.706Z,1.01
2023-04-25T06:23:21.098Z,0.84
2023-04-25T06:23:52.782Z,0.64
2023-04-25T06:24:24.446Z,0.55
2023-04-25T06:24:55.840Z,0.79
2023-04-25T06:25:27.301Z,0.80
2023-04-25T06:25:59.159Z,0.85
2023-04-25T06:26:30.595Z,0.66
2023-04-25T06:27:02.015Z,0.84
2023-04-25T06:27:33.411Z,0.62
2023-04-25T06:28:04.811Z,0.79
2023-04-25T06:28:36.205Z,0.89
2023-04-25T06:29:07.694Z,0.66
2023-04-25T06:29:39.105Z,0.81
2023-04-25T06:30:10.526Z,1.06
2023-04-25T06:30:41.974Z,0.71
2023-04-25T06:31:13.414Z,0.74
2023-04-25T06:31:44.908Z,0.93
2023-04-25T06:32:16.360Z,0.55
2023-04-25T06:32:47.788Z,0.63
2023-04-25T06:33:19.236Z,0.94
2023-04-25T06:33:50.902Z,0.82
2023-04-25T06:34:22.558Z,0.84
2023-04-25T06:34:53.984Z,0.85
2023-04-25T06:35:25.387Z,0.72
2023-04-25T06:35:56.797Z,0.79
2023-04-25T06:36:28.197Z,1.01
2023-04-25T06:36:59.633Z,0.90
2023-04-25T06:37:31.045Z,0.70
2023-04-25T06:38:02.469Z,0.67
2023-04-25T06:38:33.890Z,0.56
2023-04-25T06:39:05.282Z,0.64
2023-04-25T06:39:37.632Z,0.89
2023-04-25T06:40:10.680Z,1.05
2023-04-25T06:40:42.106Z,0.74
2023-04-25T06:41:13.566Z,0.81
2023-04-25T06:41:44.971Z,0.78
2023-04-25T06:42:16.429Z,0.60
2023-04-25T06:42:48.076Z,1.04
2023-04-25T06:43:19.505Z,1.09
2023-04-25T06:43:50.924Z,0.73
2023-04-25T06:44:22.328Z,0.69
2023-04-25T06:44:53.726Z,0.86
2023-04-25T06:45:25.150Z,0.68
2023-04-25T06:45:56.557Z,0.90
2023-04-25T06:46:28.078Z,0.79
2023-04-25T06:46:59.594Z,0.73
2023-04-25T06:47:31.197Z,0.59
2023-04-25T06:48:02.649Z,0.68
2023-04-25T06:48:34.153Z,0.60
2023-04-25T06:49:05.549Z,1.08
2023-04-25T06:49:36.963Z,0.73
2023-04-25T06:50:08.378Z,0.91
2023-04-25T06:50:39.758Z,0.99
2023-04-25T06:51:11.156Z,0.80
2023-04-25T06:51:42.617Z,0.65
2023-04-25T06:52:14.072Z,0.59
2023-04-25T06:52:45.538Z,0.85
2023-04-25T06:53:16.974Z,0.78
2023-04-25T06:53:48.387Z,1.03
2023-04-25T06:54:19.785Z,1.04
2023-04-25T06:54:51.186Z,0.81
2023-04-25T06:55:22.582Z,0.65
2023-04-25T06:55:54.004Z,0.95
2023-04-25T06:56:25.475Z,0.94
2023-04-25T06:56:56.900Z,1.00
2023-04-25T06:57:28.315Z,0.66
2023-04-25T06:57:59.712Z,0.60
2023-04-25T06:58:31.155Z,0.54
2023-04-25T06:59:02.583Z,0.73
2023-04-25T06:59:34.009Z,0.96
2023-04-25T07:00:05.429Z,0.77